sensor_id;sensor_type;location;lat;lon;timestamp;temperature;humidity
57058;DHT22;74999;52.848;6.748;2024-01-10T00:01:17;-2.80;99.90
57058;DHT22;74999;52.848;6.748;2024-01-10T00:03:43;-2.80;99.90
57058;DHT22;74999;52.848;6.748;2024-01-10T00:06:09;-2.70;99.90
57058;DHT22;74999;52.848;6.748;2024-01-10T00:08:35;-2.80;99.90
57058;DHT22;74999;52.848;6.748;2024-01-10T00:11:00;-2.80;99.90
57058;DHT22;74999;52.848;6.748;2024-01-10T00:13:26;-2.90;99.90
57058;DHT22;74999;52.848;6.748;2024-01-10T00:15:53;-2.90;99.90
57058;DHT22;74999;52.848;6.748;2024-01-10T00:18:18;-2.90;99.90
57058;DHT22;74999;52.848;6.748;2024-01-10T00:20:44;-2.90;99.90
57058;DHT22;74999;52.848;6.748;2024-01-10T00:23:10;-2.90;99.90
57058;DHT22;74999;52.848;6.748;2024-01-10T00:25:35;-2.90;99.90
57058;DHT22;74999;52.848;6.748;2024-01-10T00:28:01;-3.00;99.90
57058;DHT22;74999;52.848;6.748;2024-01-10T00:30:26;-3.00;99.90
57058;DHT22;74999;52.848;6.748;2024-01-10T00:32:52;-3.00;99.90
57058;DHT22;74999;52.848;6.748;2024-01-10T00:35:18;-2.90;99.90
57058;DHT22;74999;52.848;6.748;2024-01-10T00:37:43;-2.80;99.90
57058;DHT22;74999;52.848;6.748;2024-01-10T00:40:09;-3.00;99.90
57058;DHT22;74999;52.848;6.748;2024-01-10T00:42:35;-3.10;99.90
57058;DHT22;74999;52.848;6.748;2024-01-10T00:45:01;-3.00;99.90
57058;DHT22;74999;52.848;6.748;2024-01-10T00:47:26;-3.10;99.90
57058;DHT22;74999;52.848;6.748;2024-01-10T00:49:52;-3.10;99.90
57058;DHT22;74999;52.848;6.748;2024-01-10T00:52:17;-3.00;99.90
57058;DHT22;74999;52.848;6.748;2024-01-10T00:54:43;-3.00;99.90
57058;DHT22;74999;52.848;6.748;2024-01-10T00:57:09;-3.00;99.90
57058;DHT22;74999;52.848;6.748;2024-01-10T00:59:35;-3.00;99.90
57058;DHT22;74999;52.848;6.748;2024-01-10T01:02:00;-3.20;99.90
57058;DHT22;74999;52.848;6.748;2024-01-10T01:04:26;-3.00;99.90
57058;DHT22;74999;52.848;6.748;2024-01-10T01:06:52;-3.10;99.90
57058;DHT22;74999;52.848;6.748;2024-01-10T01:09:18;-3.00;99.90
57058;DHT22;74999;52.848;6.748;2024-01-10T01:11:44;-3.00;99.90
57058;DHT22;74999;52.848;6.748;2024-01-10T01:14:10;-3.10;99.90
57058;DHT22;74999;52.848;6.748;2024-01-10T01:16:35;-3.20;99.90
57058;DHT22;74999;52.848;6.748;2024-01-10T01:19:01;-3.20;99.90
57058;DHT22;74999;52.848;6.748;2024-01-10T01:21:26;-2.50;99.90
57058;DHT22;74999;52.848;6.748;2024-01-10T01:23:52;-3.20;99.90
57058;DHT22;74999;52.848;6.748;2024-01-10T01:26:18;-3.20;99.90
57058;DHT22;74999;52.848;6.748;2024-01-10T01:28:43;-3.30;99.90
57058;DHT22;74999;52.848;6.748;2024-01-10T01:31:09;-3.20;99.90
57058;DHT22;74999;52.848;6.748;2024-01-10T01:33:35;-3.30;99.90
57058;DHT22;74999;52.848;6.748;2024-01-10T01:36:00;-3.20;99.90
57058;DHT22;74999;52.848;6.748;2024-01-10T01:38:26;-3.30;99.90
57058;DHT22;74999;52.848;6.748;2024-01-10T01:40:52;-3.20;99.90
57058;DHT22;74999;52.848;6.748;2024-01-10T01:43:22;-3.20;99.90
57058;DHT22;74999;52.848;6.748;2024-01-10T01:45:53;-3.20;99.90
57058;DHT22;74999;52.848;6.748;2024-01-10T01:48:19;-3.20;99.90
57058;DHT22;74999;52.848;6.748;2024-01-10T01:50:46;-3.10;99.90
57058;DHT22;74999;52.848;6.748;2024-01-10T01:53:15;-3.20;99.90
57058;DHT22;74999;52.848;6.748;2024-01-10T01:55:43;-3.20;99.90
57058;DHT22;74999;52.848;6.748;2024-01-10T01:58:10;-3.20;99.90
57058;DHT22;74999;52.848;6.748;2024-01-10T02:00:37;-3.20;99.90
57058;DHT22;74999;52.848;6.748;2024-01-10T02:03:04;-3.30;99.90
57058;DHT22;74999;52.848;6.748;2024-01-10T02:05:30;-3.30;99.90
57058;DHT22;74999;52.848;6.748;2024-01-10T02:07:56;-3.30;99.90
57058;DHT22;74999;52.848;6.748;2024-01-10T02:10:22;-3.30;99.90
57058;DHT22;74999;52.848;6.748;2024-01-10T02:12:48;-3.30;99.90
57058;DHT22;74999;52.848;6.748;2024-01-10T02:15:14;-3.30;99.90
57058;DHT22;74999;52.848;6.748;2024-01-10T02:17:40;-3.40;99.90
57058;DHT22;74999;52.848;6.748;2024-01-10T02:20:13;-3.30;99.90
57058;DHT22;74999;52.848;6.748;2024-01-10T02:22:39;-3.20;99.90
57058;DHT22;74999;52.848;6.748;2024-01-10T02:25:14;-3.30;99.90
57058;DHT22;74999;52.848;6.748;2024-01-10T02:27:40;-3.20;99.90
57058;DHT22;74999;52.848;6.748;2024-01-10T02:30:07;-3.20;99.90
57058;DHT22;74999;52.848;6.748;2024-01-10T02:32:34;-3.20;99.90
57058;DHT22;74999;52.848;6.748;2024-01-10T02:35:00;-3.30;99.90
57058;DHT22;74999;52.848;6.748;2024-01-10T02:37:26;-3.30;99.90
57058;DHT22;74999;52.848;6.748;2024-01-10T02:39:52;-3.20;99.90
57058;DHT22;74999;52.848;6.748;2024-01-10T02:42:17;-3.30;99.90
57058;DHT22;74999;52.848;6.748;2024-01-10T02:44:43;-3.30;99.90
57058;DHT22;74999;52.848;6.748;2024-01-10T02:47:10;-3.40;99.90
57058;DHT22;74999;52.848;6.748;2024-01-10T02:49:36;-3.40;99.90
57058;DHT22;74999;52.848;6.748;2024-01-10T02:52:02;-3.30;99.90
57058;DHT22;74999;52.848;6.748;2024-01-10T02:54:28;-3.30;99.90
57058;DHT22;74999;52.848;6.748;2024-01-10T02:56:53;-3.30;99.90
57058;DHT22;74999;52.848;6.748;2024-01-10T02:59:19;-3.30;99.90
57058;DHT22;74999;52.848;6.748;2024-01-10T03:01:44;-3.30;99.90
57058;DHT22;74999;52.848;6.748;2024-01-10T03:04:10;-3.40;99.90
57058;DHT22;74999;52.848;6.748;2024-01-10T03:06:36;-3.40;99.90
57058;DHT22;74999;52.848;6.748;2024-01-10T03:09:03;-3.40;99.90
57058;DHT22;74999;52.848;6.748;2024-01-10T03:11:28;-3.30;99.90
57058;DHT22;74999;52.848;6.748;2024-01-10T03:14:07;-3.30;99.90
57058;DHT22;74999;52.848;6.748;2024-01-10T03:16:34;-3.40;99.90
57058;DHT22;74999;52.848;6.748;2024-01-10T03:19:03;-3.40;99.90
57058;DHT22;74999;52.848;6.748;2024-01-10T03:21:29;-3.40;99.90
57058;DHT22;74999;52.848;6.748;2024-01-10T03:23:58;-3.40;99.90
57058;DHT22;74999;52.848;6.748;2024-01-10T03:26:24;-3.40;99.90
57058;DHT22;74999;52.848;6.748;2024-01-10T03:28:50;-3.30;99.90
57058;DHT22;74999;52.848;6.748;2024-01-10T03:31:17;-3.50;99.90
57058;DHT22;74999;52.848;6.748;2024-01-10T03:33:42;-3.40;99.90
57058;DHT22;74999;52.848;6.748;2024-01-10T03:36:14;-3.50;99.90
57058;DHT22;74999;52.848;6.748;2024-01-10T03:38:39;-3.40;99.90
57058;DHT22;74999;52.848;6.748;2024-01-10T03:41:05;-3.50;99.90
57058;DHT22;74999;52.848;6.748;2024-01-10T03:43:31;-3.50;99.90
57058;DHT22;74999;52.848;6.748;2024-01-10T03:45:59;-3.40;99.90
57058;DHT22;74999;52.848;6.748;2024-01-10T03:48:25;-3.50;99.90
57058;DHT22;74999;52.848;6.748;2024-01-10T03:50:50;-3.40;99.90
57058;DHT22;74999;52.848;6.748;2024-01-10T03:53:16;-3.40;99.90
57058;DHT22;74999;52.848;6.748;2024-01-10T03:55:41;-3.50;99.90
57058;DHT22;74999;52.848;6.748;2024-01-10T03:58:07;-3.50;99.90
57058;DHT22;74999;52.848;6.748;2024-01-10T04:00:33;-3.50;99.90
57058;DHT22;74999;52.848;6.748;2024-01-10T04:02:59;-3.50;99.90
57058;DHT22;74999;52.848;6.748;2024-01-10T04:05:24;-3.50;99.90
57058;DHT22;74999;52.848;6.748;2024-01-10T04:07:51;-3.40;99.90
57058;DHT22;74999;52.848;6.748;2024-01-10T04:10:17;-3.40;99.90
57058;DHT22;74999;52.848;6.748;2024-01-10T04:12:44;-3.50;99.90
57058;DHT22;74999;52.848;6.748;2024-01-10T04:15:10;-3.40;99.90
57058;DHT22;74999;52.848;6.748;2024-01-10T04:17:36;-3.60;99.90
57058;DHT22;74999;52.848;6.748;2024-01-10T04:20:01;-3.50;99.90
57058;DHT22;74999;52.848;6.748;2024-01-10T04:22:28;-3.50;99.90
57058;DHT22;74999;52.848;6.748;2024-01-10T04:24:53;-3.50;99.90
57058;DHT22;74999;52.848;6.748;2024-01-10T04:27:19;-3.60;99.90
57058;DHT22;74999;52.848;6.748;2024-01-10T04:29:44;-3.50;99.90
57058;DHT22;74999;52.848;6.748;2024-01-10T04:32:10;-3.60;99.90
57058;DHT22;74999;52.848;6.748;2024-01-10T04:34:36;-3.60;99.90
57058;DHT22;74999;52.848;6.748;2024-01-10T04:37:02;-3.60;99.90
57058;DHT22;74999;52.848;6.748;2024-01-10T04:39:27;-3.60;99.90
57058;DHT22;74999;52.848;6.748;2024-01-10T04:41:53;-3.60;99.90
57058;DHT22;74999;52.848;6.748;2024-01-10T04:44:19;-3.60;99.90
57058;DHT22;74999;52.848;6.748;2024-01-10T04:46:44;-3.60;99.90
57058;DHT22;74999;52.848;6.748;2024-01-10T04:49:10;-3.60;99.90
57058;DHT22;74999;52.848;6.748;2024-01-10T04:51:35;-3.60;99.90
57058;DHT22;74999;52.848;6.748;2024-01-10T04:54:01;-3.60;99.90
57058;DHT22;74999;52.848;6.748;2024-01-10T04:56:27;-3.50;99.90
57058;DHT22;74999;52.848;6.748;2024-01-10T04:58:52;-2.80;99.90
57058;DHT22;74999;52.848;6.748;2024-01-10T05:01:18;-3.60;99.90
57058;DHT22;74999;52.848;6.748;2024-01-10T05:03:44;-3.60;99.90
57058;DHT22;74999;52.848;6.748;2024-01-10T05:06:09;-3.60;99.90
57058;DHT22;74999;52.848;6.748;2024-01-10T05:08:36;-3.50;99.90
57058;DHT22;74999;52.848;6.748;2024-01-10T05:11:01;-3.60;99.90
57058;DHT22;74999;52.848;6.748;2024-01-10T05:13:27;-3.60;99.90
57058;DHT22;74999;52.848;6.748;2024-01-10T05:15:53;-3.70;99.90
57058;DHT22;74999;52.848;6.748;2024-01-10T05:18:21;-3.70;99.90
57058;DHT22;74999;52.848;6.748;2024-01-10T05:20:47;-3.70;99.90
57058;DHT22;74999;52.848;6.748;2024-01-10T05:23:13;-3.80;99.90
57058;DHT22;74999;52.848;6.748;2024-01-10T05:25:38;-3.80;99.90
57058;DHT22;74999;52.848;6.748;2024-01-10T05:28:04;-3.80;99.90
57058;DHT22;74999;52.848;6.748;2024-01-10T05:30:30;-3.80;99.90
57058;DHT22;74999;52.848;6.748;2024-01-10T05:32:57;-3.70;99.90
57058;DHT22;74999;52.848;6.748;2024-01-10T05:35:24;-3.70;99.90
57058;DHT22;74999;52.848;6.748;2024-01-10T05:37:51;-3.70;99.90
57058;DHT22;74999;52.848;6.748;2024-01-10T05:40:17;-3.80;99.90
57058;DHT22;74999;52.848;6.748;2024-01-10T05:42:47;-3.70;99.90
57058;DHT22;74999;52.848;6.748;2024-01-10T05:45:12;-3.90;99.90
57058;DHT22;74999;52.848;6.748;2024-01-10T05:47:38;-3.70;99.90
57058;DHT22;74999;52.848;6.748;2024-01-10T05:50:04;-3.90;99.90
57058;DHT22;74999;52.848;6.748;2024-01-10T05:52:32;-3.80;99.90
57058;DHT22;74999;52.848;6.748;2024-01-10T05:54:59;-3.80;99.90
57058;DHT22;74999;52.848;6.748;2024-01-10T05:57:27;-3.80;99.90
57058;DHT22;74999;52.848;6.748;2024-01-10T05:59:52;-3.80;99.90
57058;DHT22;74999;52.848;6.748;2024-01-10T06:02:21;-3.80;99.90
57058;DHT22;74999;52.848;6.748;2024-01-10T06:04:46;-3.90;99.90
57058;DHT22;74999;52.848;6.748;2024-01-10T06:07:12;-3.80;99.90
57058;DHT22;74999;52.848;6.748;2024-01-10T06:09:38;-3.80;99.90
57058;DHT22;74999;52.848;6.748;2024-01-10T06:12:05;-3.80;99.90
57058;DHT22;74999;52.848;6.748;2024-01-10T06:14:31;-3.80;99.90
57058;DHT22;74999;52.848;6.748;2024-01-10T06:16:56;-3.80;99.90
57058;DHT22;74999;52.848;6.748;2024-01-10T06:19:25;-3.80;99.90
57058;DHT22;74999;52.848;6.748;2024-01-10T06:21:50;-3.80;99.90
57058;DHT22;74999;52.848;6.748;2024-01-10T06:24:17;-3.70;99.90
57058;DHT22;74999;52.848;6.748;2024-01-10T06:26:43;-3.80;99.90
57058;DHT22;74999;52.848;6.748;2024-01-10T06:29:09;-3.80;99.90
57058;DHT22;74999;52.848;6.748;2024-01-10T06:31:34;-3.70;99.90
57058;DHT22;74999;52.848;6.748;2024-01-10T06:34:00;-3.70;99.90
57058;DHT22;74999;52.848;6.748;2024-01-10T06:36:25;-3.80;99.90
57058;DHT22;74999;52.848;6.748;2024-01-10T06:38:51;-3.70;99.90
57058;DHT22;74999;52.848;6.748;2024-01-10T06:41:17;-3.80;99.90
57058;DHT22;74999;52.848;6.748;2024-01-10T06:43:42;-3.80;99.90
57058;DHT22;74999;52.848;6.748;2024-01-10T06:46:09;-3.90;99.90
57058;DHT22;74999;52.848;6.748;2024-01-10T06:48:36;-3.70;99.90
57058;DHT22;74999;52.848;6.748;2024-01-10T06:51:01;-3.70;99.90
57058;DHT22;74999;52.848;6.748;2024-01-10T06:53:27;-3.90;99.90
57058;DHT22;74999;52.848;6.748;2024-01-10T06:55:53;-3.70;99.90
57058;DHT22;74999;52.848;6.748;2024-01-10T06:58:18;-3.70;99.90
57058;DHT22;74999;52.848;6.748;2024-01-10T07:00:44;-3.80;99.90
57058;DHT22;74999;52.848;6.748;2024-01-10T07:03:09;-3.80;99.90
57058;DHT22;74999;52.848;6.748;2024-01-10T07:05:35;-3.70;99.90
57058;DHT22;74999;52.848;6.748;2024-01-10T07:08:02;-3.70;99.90
57058;DHT22;74999;52.848;6.748;2024-01-10T07:10:31;-3.80;99.90
57058;DHT22;74999;52.848;6.748;2024-01-10T07:12:57;-3.80;99.90
57058;DHT22;74999;52.848;6.748;2024-01-10T07:15:23;-3.90;99.90
57058;DHT22;74999;52.848;6.748;2024-01-10T07:17:48;-3.80;99.90
57058;DHT22;74999;52.848;6.748;2024-01-10T07:20:14;-3.80;99.90
57058;DHT22;74999;52.848;6.748;2024-01-10T07:22:40;-2.90;99.90
57058;DHT22;74999;52.848;6.748;2024-01-10T07:25:15;-3.90;99.90
57058;DHT22;74999;52.848;6.748;2024-01-10T07:27:41;-3.80;99.90
57058;DHT22;74999;52.848;6.748;2024-01-10T07:30:07;-3.90;99.90
57058;DHT22;74999;52.848;6.748;2024-01-10T07:32:43;-3.90;99.90
57058;DHT22;74999;52.848;6.748;2024-01-10T07:35:09;-3.90;99.90
57058;DHT22;74999;52.848;6.748;2024-01-10T07:37:39;-3.90;99.90
57058;DHT22;74999;52.848;6.748;2024-01-10T07:40:06;-3.80;99.90
57058;DHT22;74999;52.848;6.748;2024-01-10T07:42:35;-3.90;99.90
57058;DHT22;74999;52.848;6.748;2024-01-10T07:45:01;-3.70;99.90
57058;DHT22;74999;52.848;6.748;2024-01-10T07:47:33;-3.80;99.90
57058;DHT22;74999;52.848;6.748;2024-01-10T07:49:59;-3.80;99.90
57058;DHT22;74999;52.848;6.748;2024-01-10T07:52:26;-3.90;99.90
57058;DHT22;74999;52.848;6.748;2024-01-10T07:54:52;-3.80;99.90
57058;DHT22;74999;52.848;6.748;2024-01-10T07:57:17;-3.90;99.90
57058;DHT22;74999;52.848;6.748;2024-01-10T07:59:45;-3.90;99.90
57058;DHT22;74999;52.848;6.748;2024-01-10T08:02:10;-3.90;99.90
57058;DHT22;74999;52.848;6.748;2024-01-10T08:04:37;-3.80;99.90
57058;DHT22;74999;52.848;6.748;2024-01-10T08:07:03;-3.80;99.90
57058;DHT22;74999;52.848;6.748;2024-01-10T08:09:28;-3.80;99.90
57058;DHT22;74999;52.848;6.748;2024-01-10T08:11:54;-3.90;99.90
57058;DHT22;74999;52.848;6.748;2024-01-10T08:14:20;-3.80;99.90
57058;DHT22;74999;52.848;6.748;2024-01-10T08:16:45;-3.80;99.90
57058;DHT22;74999;52.848;6.748;2024-01-10T08:19:11;-3.70;99.90
57058;DHT22;74999;52.848;6.748;2024-01-10T08:21:36;-3.80;99.90
57058;DHT22;74999;52.848;6.748;2024-01-10T08:24:02;-3.70;99.90
57058;DHT22;74999;52.848;6.748;2024-01-10T08:26:28;-3.70;99.90
57058;DHT22;74999;52.848;6.748;2024-01-10T08:28:55;-3.70;99.90
57058;DHT22;74999;52.848;6.748;2024-01-10T08:31:20;-3.70;99.90
57058;DHT22;74999;52.848;6.748;2024-01-10T08:33:48;-3.70;99.90
57058;DHT22;74999;52.848;6.748;2024-01-10T08:36:13;-3.60;99.90
57058;DHT22;74999;52.848;6.748;2024-01-10T08:38:40;-3.60;99.90
57058;DHT22;74999;52.848;6.748;2024-01-10T08:41:08;-3.50;99.90
57058;DHT22;74999;52.848;6.748;2024-01-10T08:43:34;-3.70;99.90
57058;DHT22;74999;52.848;6.748;2024-01-10T08:46:00;-3.60;99.90
57058;DHT22;74999;52.848;6.748;2024-01-10T08:48:26;-3.50;99.90
57058;DHT22;74999;52.848;6.748;2024-01-10T08:50:51;-3.50;99.90
57058;DHT22;74999;52.848;6.748;2024-01-10T08:53:17;-3.40;99.90
57058;DHT22;74999;52.848;6.748;2024-01-10T08:55:43;-3.50;99.90
57058;DHT22;74999;52.848;6.748;2024-01-10T08:58:08;-3.30;99.90
57058;DHT22;74999;52.848;6.748;2024-01-10T09:00:34;-3.30;99.90
57058;DHT22;74999;52.848;6.748;2024-01-10T09:03:00;-3.30;99.90
57058;DHT22;74999;52.848;6.748;2024-01-10T09:05:26;-3.20;99.90
57058;DHT22;74999;52.848;6.748;2024-01-10T09:07:52;-3.10;99.90
57058;DHT22;74999;52.848;6.748;2024-01-10T09:10:19;-3.00;99.90
57058;DHT22;74999;52.848;6.748;2024-01-10T09:12:47;-2.90;99.90
57058;DHT22;74999;52.848;6.748;2024-01-10T09:15:13;-2.90;99.90
57058;DHT22;74999;52.848;6.748;2024-01-10T09:17:41;-2.70;99.90
57058;DHT22;74999;52.848;6.748;2024-01-10T09:20:07;-2.70;99.90
57058;DHT22;74999;52.848;6.748;2024-01-10T09:22:34;-2.60;99.90
57058;DHT22;74999;52.848;6.748;2024-01-10T09:25:00;-2.50;99.90
57058;DHT22;74999;52.848;6.748;2024-01-10T09:27:33;-2.30;99.90
57058;DHT22;74999;52.848;6.748;2024-01-10T09:30:00;-2.30;99.90
57058;DHT22;74999;52.848;6.748;2024-01-10T09:32:29;-2.10;99.90
57058;DHT22;74999;52.848;6.748;2024-01-10T09:34:55;-2.10;99.90
57058;DHT22;74999;52.848;6.748;2024-01-10T09:37:21;-1.80;99.90
57058;DHT22;74999;52.848;6.748;2024-01-10T09:39:48;-1.70;99.90
57058;DHT22;74999;52.848;6.748;2024-01-10T09:42:14;-1.60;99.90
57058;DHT22;74999;52.848;6.748;2024-01-10T09:44:40;-1.50;99.90
57058;DHT22;74999;52.848;6.748;2024-01-10T09:47:06;-1.40;99.90
57058;DHT22;74999;52.848;6.748;2024-01-10T09:49:33;-1.30;99.90
57058;DHT22;74999;52.848;6.748;2024-01-10T09:51:59;-1.30;99.90
57058;DHT22;74999;52.848;6.748;2024-01-10T09:54:30;-1.10;99.90
57058;DHT22;74999;52.848;6.748;2024-01-10T09:56:59;-0.80;99.90
57058;DHT22;74999;52.848;6.748;2024-01-10T09:59:24;-0.90;99.90
57058;DHT22;74999;52.848;6.748;2024-01-10T10:01:52;-0.70;99.90
57058;DHT22;74999;52.848;6.748;2024-01-10T10:04:20;-0.60;99.90
57058;DHT22;74999;52.848;6.748;2024-01-10T10:06:46;-0.60;99.90
57058;DHT22;74999;52.848;6.748;2024-01-10T10:09:12;-0.40;99.90
57058;DHT22;74999;52.848;6.748;2024-01-10T10:11:40;-0.30;99.90
57058;DHT22;74999;52.848;6.748;2024-01-10T10:14:17;-0.10;99.90
57058;DHT22;74999;52.848;6.748;2024-01-10T10:16:43;0.00;99.90
57058;DHT22;74999;52.848;6.748;2024-01-10T10:19:09;0.30;99.90
57058;DHT22;74999;52.848;6.748;2024-01-10T10:21:37;0.30;99.90
57058;DHT22;74999;52.848;6.748;2024-01-10T10:24:04;0.50;99.90
57058;DHT22;74999;52.848;6.748;2024-01-10T10:26:32;1.00;99.90
57058;DHT22;74999;52.848;6.748;2024-01-10T10:28:59;1.70;99.90
57058;DHT22;74999;52.848;6.748;2024-01-10T10:31:25;1.90;99.60
57058;DHT22;74999;52.848;6.748;2024-01-10T10:33:51;2.50;98.10
57058;DHT22;74999;52.848;6.748;2024-01-10T10:36:18;2.30;97.80
57058;DHT22;74999;52.848;6.748;2024-01-10T10:38:45;2.30;98.30
57058;DHT22;74999;52.848;6.748;2024-01-10T10:41:14;2.30;98.10
57058;DHT22;74999;52.848;6.748;2024-01-10T10:43:40;2.50;97.90
57058;DHT22;74999;52.848;6.748;2024-01-10T10:46:10;2.60;98.20
57058;DHT22;74999;52.848;6.748;2024-01-10T10:48:37;2.90;97.90
57058;DHT22;74999;52.848;6.748;2024-01-10T10:53:30;3.30;96.60
57058;DHT22;74999;52.848;6.748;2024-01-10T10:55:58;3.50;95.30
57058;DHT22;74999;52.848;6.748;2024-01-10T10:58:24;3.50;94.50
57058;DHT22;74999;52.848;6.748;2024-01-10T11:00:50;3.50;93.60
57058;DHT22;74999;52.848;6.748;2024-01-10T11:03:16;3.50;93.00
57058;DHT22;74999;52.848;6.748;2024-01-10T11:05:43;3.80;92.30
57058;DHT22;74999;52.848;6.748;2024-01-10T11:08:13;4.00;91.30
57058;DHT22;74999;52.848;6.748;2024-01-10T11:10:42;3.80;91.00
57058;DHT22;74999;52.848;6.748;2024-01-10T11:21:46;4.00;86.00
57058;DHT22;74999;52.848;6.748;2024-01-10T11:24:15;3.90;87.70
57058;DHT22;74999;52.848;6.748;2024-01-10T11:26:41;3.80;87.70
57058;DHT22;74999;52.848;6.748;2024-01-10T11:29:07;3.90;86.80
57058;DHT22;74999;52.848;6.748;2024-01-10T11:31:32;4.40;84.40
57058;DHT22;74999;52.848;6.748;2024-01-10T11:34:00;4.30;83.00
57058;DHT22;74999;52.848;6.748;2024-01-10T11:36:27;4.20;82.10
57058;DHT22;74999;52.848;6.748;2024-01-10T11:38:58;4.30;81.80
57058;DHT22;74999;52.848;6.748;2024-01-10T11:41:36;4.10;81.20
57058;DHT22;74999;52.848;6.748;2024-01-10T11:46:42;4.00;80.40
57058;DHT22;74999;52.848;6.748;2024-01-10T11:49:09;4.40;79.80
57058;DHT22;74999;52.848;6.748;2024-01-10T11:51:38;4.10;78.80
57058;DHT22;74999;52.848;6.748;2024-01-10T11:54:04;4.00;79.00
57058;DHT22;74999;52.848;6.748;2024-01-10T11:56:40;4.10;79.00
57058;DHT22;74999;52.848;6.748;2024-01-10T11:59:08;3.60;78.90
57058;DHT22;74999;52.848;6.748;2024-01-10T12:01:35;3.50;79.20
57058;DHT22;74999;52.848;6.748;2024-01-10T12:04:02;3.30;79.30
57058;DHT22;74999;52.848;6.748;2024-01-10T12:06:29;3.10;79.50
57058;DHT22;74999;52.848;6.748;2024-01-10T12:08:55;3.00;79.70
57058;DHT22;74999;52.848;6.748;2024-01-10T12:11:21;3.00;79.80
57058;DHT22;74999;52.848;6.748;2024-01-10T12:13:47;3.00;79.60
57058;DHT22;74999;52.848;6.748;2024-01-10T12:16:13;2.90;79.50
57058;DHT22;74999;52.848;6.748;2024-01-10T12:18:43;2.80;79.40
57058;DHT22;74999;52.848;6.748;2024-01-10T12:21:08;2.80;79.20
57058;DHT22;74999;52.848;6.748;2024-01-10T12:23:35;2.80;79.30
57058;DHT22;74999;52.848;6.748;2024-01-10T12:26:02;2.90;78.80
57058;DHT22;74999;52.848;6.748;2024-01-10T12:28:30;2.90;78.70
57058;DHT22;74999;52.848;6.748;2024-01-10T12:30:56;3.00;78.60
57058;DHT22;74999;52.848;6.748;2024-01-10T12:33:23;3.10;78.50
57058;DHT22;74999;52.848;6.748;2024-01-10T12:36:08;3.30;78.30
57058;DHT22;74999;52.848;6.748;2024-01-10T12:38:40;3.20;77.40
57058;DHT22;74999;52.848;6.748;2024-01-10T12:41:06;3.40;77.50
57058;DHT22;74999;52.848;6.748;2024-01-10T12:43:34;3.30;77.60
57058;DHT22;74999;52.848;6.748;2024-01-10T12:46:11;3.70;77.70
57058;DHT22;74999;52.848;6.748;2024-01-10T12:48:41;4.10;76.50
57058;DHT22;74999;52.848;6.748;2024-01-10T12:51:10;4.90;76.20
57058;DHT22;74999;52.848;6.748;2024-01-10T12:53:43;5.50;75.00
57058;DHT22;74999;52.848;6.748;2024-01-10T12:56:10;5.50;74.10
57058;DHT22;74999;52.848;6.748;2024-01-10T12:58:40;5.70;73.90
57058;DHT22;74999;52.848;6.748;2024-01-10T13:01:08;5.40;73.00
57058;DHT22;74999;52.848;6.748;2024-01-10T13:03:34;5.20;73.20
57058;DHT22;74999;52.848;6.748;2024-01-10T13:06:00;6.50;72.70
57058;DHT22;74999;52.848;6.748;2024-01-10T13:08:26;4.60;74.40
57058;DHT22;74999;52.848;6.748;2024-01-10T13:10:52;4.50;74.10
57058;DHT22;74999;52.848;6.748;2024-01-10T13:13:19;4.30;74.60
57058;DHT22;74999;52.848;6.748;2024-01-10T13:15:47;4.20;74.20
57058;DHT22;74999;52.848;6.748;2024-01-10T13:18:13;4.30;74.20
57058;DHT22;74999;52.848;6.748;2024-01-10T13:20:43;4.40;74.00
57058;DHT22;74999;52.848;6.748;2024-01-10T13:23:09;4.10;73.60
57058;DHT22;74999;52.848;6.748;2024-01-10T13:25:35;3.80;73.50
57058;DHT22;74999;52.848;6.748;2024-01-10T13:28:05;3.60;73.40
57058;DHT22;74999;52.848;6.748;2024-01-10T13:30:31;3.60;73.30
57058;DHT22;74999;52.848;6.748;2024-01-10T13:32:57;3.40;72.80
57058;DHT22;74999;52.848;6.748;2024-01-10T13:35:24;3.10;73.00
57058;DHT22;74999;52.848;6.748;2024-01-10T13:37:49;2.90;73.50
57058;DHT22;74999;52.848;6.748;2024-01-10T13:40:15;2.60;73.40
57058;DHT22;74999;52.848;6.748;2024-01-10T13:42:42;2.30;73.40
57058;DHT22;74999;52.848;6.748;2024-01-10T13:45:10;2.20;73.90
57058;DHT22;74999;52.848;6.748;2024-01-10T13:47:39;2.10;74.40
57058;DHT22;74999;52.848;6.748;2024-01-10T13:50:05;1.90;74.40
57058;DHT22;74999;52.848;6.748;2024-01-10T13:52:35;1.80;74.40
57058;DHT22;74999;52.848;6.748;2024-01-10T13:55:02;1.70;74.60
57058;DHT22;74999;52.848;6.748;2024-01-10T13:57:30;1.60;74.80
57058;DHT22;74999;52.848;6.748;2024-01-10T13:59:58;1.50;74.60
57058;DHT22;74999;52.848;6.748;2024-01-10T14:02:24;1.40;74.70
57058;DHT22;74999;52.848;6.748;2024-01-10T14:04:50;1.40;75.20
57058;DHT22;74999;52.848;6.748;2024-01-10T14:07:16;1.30;75.40
57058;DHT22;74999;52.848;6.748;2024-01-10T14:09:42;1.20;75.50
57058;DHT22;74999;52.848;6.748;2024-01-10T14:12:08;1.20;75.70
57058;DHT22;74999;52.848;6.748;2024-01-10T14:14:33;2.50;76.40
57058;DHT22;74999;52.848;6.748;2024-01-10T14:16:59;1.00;75.80
57058;DHT22;74999;52.848;6.748;2024-01-10T14:19:25;1.00;76.10
57058;DHT22;74999;52.848;6.748;2024-01-10T14:21:51;1.00;75.90
57058;DHT22;74999;52.848;6.748;2024-01-10T14:24:17;1.00;76.10
57058;DHT22;74999;52.848;6.748;2024-01-10T14:26:43;1.00;76.30
57058;DHT22;74999;52.848;6.748;2024-01-10T14:29:09;0.90;76.40
57058;DHT22;74999;52.848;6.748;2024-01-10T14:31:36;0.90;76.50
57058;DHT22;74999;52.848;6.748;2024-01-10T14:34:02;0.80;76.60
57058;DHT22;74999;52.848;6.748;2024-01-10T14:36:27;0.90;76.90
57058;DHT22;74999;52.848;6.748;2024-01-10T14:38:53;0.80;77.00
57058;DHT22;74999;52.848;6.748;2024-01-10T14:41:20;0.80;77.10
57058;DHT22;74999;52.848;6.748;2024-01-10T14:43:46;0.80;77.20
57058;DHT22;74999;52.848;6.748;2024-01-10T14:46:12;0.60;77.00
57058;DHT22;74999;52.848;6.748;2024-01-10T14:48:37;0.70;77.20
57058;DHT22;74999;52.848;6.748;2024-01-10T14:51:03;0.60;77.00
57058;DHT22;74999;52.848;6.748;2024-01-10T14:53:31;0.50;77.20
57058;DHT22;74999;52.848;6.748;2024-01-10T14:55:57;0.50;78.10
57058;DHT22;74999;52.848;6.748;2024-01-10T14:58:22;0.60;77.60
57058;DHT22;74999;52.848;6.748;2024-01-10T15:00:48;0.60;78.50
57058;DHT22;74999;52.848;6.748;2024-01-10T15:03:14;0.40;77.80
57058;DHT22;74999;52.848;6.748;2024-01-10T15:05:40;0.40;78.10
57058;DHT22;74999;52.848;6.748;2024-01-10T15:08:07;0.40;78.20
57058;DHT22;74999;52.848;6.748;2024-01-10T15:10:37;0.40;78.30
57058;DHT22;74999;52.848;6.748;2024-01-10T15:13:09;0.50;78.60
57058;DHT22;74999;52.848;6.748;2024-01-10T15:15:37;0.40;78.50
57058;DHT22;74999;52.848;6.748;2024-01-10T15:18:04;0.30;78.70
57058;DHT22;74999;52.848;6.748;2024-01-10T15:20:29;0.40;78.90
57058;DHT22;74999;52.848;6.748;2024-01-10T15:22:56;0.30;79.00
57058;DHT22;74999;52.848;6.748;2024-01-10T15:25:23;0.30;79.20
57058;DHT22;74999;52.848;6.748;2024-01-10T15:27:50;0.20;79.40
57058;DHT22;74999;52.848;6.748;2024-01-10T15:30:15;0.30;79.90
57058;DHT22;74999;52.848;6.748;2024-01-10T15:32:41;0.10;79.90
57058;DHT22;74999;52.848;6.748;2024-01-10T15:35:07;0.10;80.20
57058;DHT22;74999;52.848;6.748;2024-01-10T15:37:33;0.10;80.50
57058;DHT22;74999;52.848;6.748;2024-01-10T15:39:58;0.00;80.80
57058;DHT22;74999;52.848;6.748;2024-01-10T15:42:24;0.00;81.20
57058;DHT22;74999;52.848;6.748;2024-01-10T15:44:49;0.10;81.50